createdAt,value
2023-11-27T00:01:25.226Z,-5.96
2023-11-27T00:09:27.414Z,-5.49
2023-11-27T00:14:10.533Z,-5.20
2023-11-27T00:18:34.118Z,-4.92
2023-11-27T00:23:17.201Z,-4.73
2023-11-27T00:27:44.101Z,-4.55
2023-11-27T00:31:58.449Z,-4.38
2023-11-27T00:36:42.136Z,-4.27
2023-11-27T00:44:00.435Z,-4.10
2023-11-27T00:48:29.354Z,-4.01
2023-11-27T00:53:14.014Z,-3.90
2023-11-27T00:57:38.149Z,-3.82
2023-11-27T01:02:05.149Z,-3.74
2023-11-27T01:06:38.915Z,-3.66
2023-11-27T01:11:24.107Z,-3.56
2023-11-27T01:15:48.439Z,-3.56
2023-11-27T01:19:54.560Z,-3.63
2023-11-27T01:24:22.813Z,-3.67
2023-11-27T01:28:51.845Z,-3.64
2023-11-27T01:33:36.975Z,-3.59
2023-11-27T01:38:21.606Z,-3.53
2023-11-27T01:43:03.030Z,-3.49
2023-11-27T01:47:50.973Z,-3.45
2023-11-27T01:52:25.091Z,-3.42
2023-11-27T01:57:06.948Z,-3.39
2023-11-27T02:01:40.323Z,-3.36
2023-11-27T02:06:01.381Z,-3.33
2023-11-27T02:10:08.313Z,-3.30
2023-11-27T02:14:34.522Z,-3.27
2023-11-27T02:19:14.260Z,-3.25
2023-11-27T02:24:01.921Z,-3.22
2023-11-27T02:28:27.888Z,-3.18
2023-11-27T02:33:07.419Z,-3.17
2023-11-27T02:37:51.863Z,-3.16
2023-11-27T02:42:00.232Z,-3.15
2023-11-27T02:46:27.386Z,-3.13
2023-11-27T02:51:03.282Z,-3.11
2023-11-27T02:55:15.891Z,-3.09
2023-11-27T02:59:36.940Z,-3.09
2023-11-27T03:03:45.083Z,-3.05
2023-11-27T03:08:24.617Z,-3.00
2023-11-27T03:13:04.537Z,-2.96
2023-11-27T03:17:44.197Z,-2.93
2023-11-27T03:22:24.435Z,-2.90
2023-11-27T03:26:56.951Z,-2.89
2023-11-27T03:31:11.985Z,-2.87
2023-11-27T03:39:03.665Z,-2.78
2023-11-27T03:43:49.432Z,-2.77
2023-11-27T03:48:14.983Z,-2.72
2023-11-27T03:52:46.138Z,-2.65
2023-11-27T03:57:25.816Z,-2.53
2023-11-27T04:01:35.412Z,-2.41
2023-11-27T04:05:59.783Z,-2.32
2023-11-27T04:10:33.082Z,-2.26
2023-11-27T04:15:17.781Z,-2.18
2023-11-27T04:19:50.114Z,-2.11
2023-11-27T04:24:34.898Z,-2.08
2023-11-27T04:28:55.462Z,-2.05
2023-11-27T04:37:40.074Z,-1.99
2023-11-27T04:41:56.011Z,-2.01
2023-11-27T04:46:41.150Z,-2.01
2023-11-27T04:51:21.206Z,-2.02
2023-11-27T04:55:42.779Z,-2.02
2023-11-27T04:59:50.629Z,-2.02
2023-11-27T05:04:31.861Z,-2.02
2023-11-27T05:09:02.885Z,-2.01
2023-11-27T05:13:42.413Z,-1.99
2023-11-27T05:18:07.928Z,-1.98
2023-11-27T05:22:52.020Z,-1.93
2023-11-27T05:26:58.907Z,-1.88
2023-11-27T05:31:17.149Z,-1.84
2023-11-27T05:35:22.298Z,-1.80
2023-11-27T05:39:49.873Z,-1.76
2023-11-27T05:43:57.528Z,-1.73
2023-11-27T05:48:42.527Z,-1.74
2023-11-27T05:53:10.690Z,-1.72
2023-11-27T05:57:34.841Z,-1.70
2023-11-27T06:02:16.137Z,-1.71
2023-11-27T06:06:23.393Z,-1.72
2023-11-27T06:11:07.909Z,-1.69
2023-11-27T06:15:39.534Z,-1.68
2023-11-27T06:19:36.911Z,-1.67
2023-11-27T06:23:40.890Z,-1.64
2023-11-27T06:28:26.396Z,-1.60
2023-11-27T06:33:03.238Z,-1.56
2023-11-27T06:37:07.872Z,-1.58
2023-11-27T06:41:32.165Z,-1.59
2023-11-27T06:46:02.291Z,-1.64
2023-11-27T06:50:09.850Z,-1.66
2023-11-27T06:54:17.693Z,-1.67
2023-11-27T06:58:50.426Z,-1.67
2023-11-27T07:03:15.568Z,-1.63
2023-11-27T07:07:56.583Z,-1.56
2023-11-27T07:12:21.546Z,-1.45
2023-11-27T07:16:46.274Z,-1.43
2023-11-27T07:24:03.524Z,-1.21
2023-11-27T07:28:34.994Z,-1.20
2023-11-27T07:32:51.814Z,-1.23
2023-11-27T07:37:36.675Z,-1.18
2023-11-27T07:42:01.393Z,-1.09
2023-11-27T07:46:31.364Z,-0.96
2023-11-27T07:50:55.918Z,-0.79
2023-11-27T07:55:24.047Z,-0.60
2023-11-27T07:59:44.589Z,-0.53
2023-11-27T08:04:16.691Z,-0.58
2023-11-27T08:08:44.768Z,-0.57
2023-11-27T08:13:36.123Z,-0.50
2023-11-27T08:18:02.575Z,-0.44
2023-11-27T08:22:46.980Z,-0.21
2023-11-27T08:27:14.855Z,-0.08
2023-11-27T08:31:29.229Z,0.03
2023-11-27T08:35:53.746Z,0.03
2023-11-27T08:40:22.834Z,0.11
2023-11-27T08:45:03.488Z,0.20
2023-11-27T08:49:16.601Z,0.27
2023-11-27T08:53:30.387Z,0.26
2023-11-27T08:58:15.915Z,0.12
2023-11-27T09:03:02.662Z,-0.06
2023-11-27T09:07:30.088Z,-0.27
2023-11-27T09:11:53.949Z,-0.49
2023-11-27T09:16:20.820Z,-0.38
2023-11-27T09:20:53.263Z,-0.17
2023-11-27T09:25:21.463Z,0.06
2023-11-27T09:29:27.800Z,0.36
2023-11-27T09:38:05.158Z,0.29
2023-11-27T09:42:13.356Z,0.34
2023-11-27T09:46:38.827Z,0.53
2023-11-27T09:51:18.739Z,0.75
2023-11-27T09:56:02.926Z,1.44
2023-11-27T10:00:11.048Z,2.14
2023-11-27T10:04:17.688Z,2.50
2023-11-27T10:08:23.778Z,2.52
2023-11-27T10:12:41.375Z,2.67
2023-11-27T10:17:10.706Z,2.70
2023-11-27T10:21:44.709Z,2.93
2023-11-27T10:26:08.970Z,3.02
2023-11-27T10:30:59.341Z,2.98
2023-11-27T10:35:20.052Z,2.90
2023-11-27T10:40:05.723Z,3.04
2023-11-27T10:44:58.603Z,3.19
2023-11-27T10:49:20.539Z,3.28
2023-11-27T10:54:04.605Z,3.39
2023-11-27T10:58:26.880Z,3.54
2023-11-27T11:02:37.987Z,3.43
2023-11-27T11:07:10.550Z,3.28
2023-11-27T11:11:18.065Z,3.23
2023-11-27T11:15:30.704Z,3.36
2023-11-27T11:20:02.280Z,3.27
2023-11-27T11:25:04.987Z,3.22
2023-11-27T11:29:52.010Z,3.26
2023-11-27T11:34:22.051Z,3.14
2023-11-27T11:38:56.118Z,2.93
2023-11-27T11:43:08.097Z,2.75
2023-11-27T11:47:21.772Z,2.82
2023-11-27T11:52:13.608Z,2.67
2023-11-27T11:56:30.498Z,2.62
2023-11-27T12:00:35.467Z,2.59
2023-11-27T12:05:00.569Z,2.62
2023-11-27T12:09:28.966Z,2.72
2023-11-27T12:13:58.747Z,2.74
2023-11-27T12:18:50.146Z,2.86
2023-11-27T12:23:18.856Z,2.90
2023-11-27T12:27:54.065Z,2.79
2023-11-27T12:32:18.642Z,2.64
2023-11-27T12:37:02.674Z,2.56
2023-11-27T12:41:42.328Z,2.46
2023-11-27T12:45:54.753Z,2.35
2023-11-27T12:50:13.170Z,2.22
2023-11-27T12:54:41.756Z,2.12
2023-11-27T12:59:26.402Z,2.03
2023-11-27T13:03:52.011Z,1.99
2023-11-27T13:08:01.389Z,1.99
2023-11-27T13:12:47.929Z,1.92
2023-11-27T13:17:14.202Z,1.77
2023-11-27T13:21:20.361Z,1.69
2023-11-27T13:26:05.835Z,1.60
2023-11-27T13:30:58.637Z,1.50
2023-11-27T13:35:45.948Z,1.41
2023-11-27T13:40:10.547Z,1.33
2023-11-27T13:49:16.482Z,1.09
2023-11-27T13:53:43.250Z,0.99
2023-11-27T13:58:26.021Z,0.86
2023-11-27T14:03:06.631Z,0.74
2023-11-27T14:07:39.509Z,0.63
2023-11-27T14:12:24.517Z,0.52
2023-11-27T14:16:52.856Z,0.48
2023-11-27T14:21:15.578Z,0.47
2023-11-27T14:25:40.630Z,0.42
2023-11-27T14:29:53.666Z,0.38
2023-11-27T14:34:10.591Z,0.36
2023-11-27T14:38:37.029Z,0.32
2023-11-27T14:43:24.173Z,0.29
2023-11-27T14:47:48.012Z,0.26
2023-11-27T14:51:52.889Z,0.20
2023-11-27T14:55:56.887Z,0.14
2023-11-27T15:04:25.037Z,-0.01
2023-11-27T15:08:22.506Z,-0.07
2023-11-27T15:12:31.863Z,-0.10
2023-11-27T15:17:15.040Z,-0.13
2023-11-27T15:21:40.019Z,-0.16
2023-11-27T15:26:05.924Z,-0.20
2023-11-27T15:30:38.535Z,-0.24
2023-11-27T15:35:25.331Z,-0.26
2023-11-27T15:39:50.461Z,-0.27
2023-11-27T15:44:03.408Z,-0.26
2023-11-27T15:48:13.694Z,-0.26
2023-11-27T15:52:35.465Z,-0.26
2023-11-27T15:56:46.151Z,-0.25
2023-11-27T16:01:17.460Z,-0.25
2023-11-27T16:09:23.224Z,-0.18
2023-11-27T16:13:56.372Z,-0.19
2023-11-27T16:18:38.262Z,-0.23
2023-11-27T16:23:03.692Z,-0.30
2023-11-27T16:27:41.553Z,-0.37
2023-11-27T16:32:03.384Z,-0.43
2023-11-27T16:36:12.687Z,-0.46
2023-11-27T16:40:55.262Z,-0.46
2023-11-27T16:45:01.345Z,-0.44
2023-11-27T16:49:24.108Z,-0.39
2023-11-27T16:53:48.081Z,-0.36
2023-11-27T16:58:10.900Z,-0.32
2023-11-27T17:02:43.588Z,-0.28
2023-11-27T17:06:33.380Z,-0.28
2023-11-27T17:11:03.275Z,-0.29
2023-11-27T17:15:07.156Z,-0.28
2023-11-27T17:19:31.333Z,-0.26
2023-11-27T17:23:39.035Z,-0.24
2023-11-27T17:27:41.684Z,-0.22
2023-11-27T17:32:05.711Z,-0.21
2023-11-27T17:36:44.082Z,-0.21
2023-11-27T17:41:17.598Z,-0.22
2023-11-27T17:45:30.660Z,-0.23
2023-11-27T17:49:53.523Z,-0.24
2023-11-27T17:53:57.068Z,-0.25
2023-11-27T17:58:03.950Z,-0.26
2023-11-27T18:02:27.957Z,-0.26
2023-11-27T18:09:46.421Z,-0.22
2023-11-27T18:14:12.399Z,-0.23
2023-11-27T18:18:45.231Z,-0.20
2023-11-27T18:23:30.270Z,-0.18
2023-11-27T18:27:59.104Z,-0.16
2023-11-27T18:32:23.799Z,-0.14
2023-11-27T18:36:28.966Z,-0.12
2023-11-27T18:41:00.887Z,-0.10
2023-11-27T18:45:40.227Z,-0.07
2023-11-27T18:50:08.576Z,-0.03
2023-11-27T18:54:42.873Z,0.00
2023-11-27T18:59:28.782Z,0.02
2023-11-27T19:04:00.719Z,0.03
2023-11-27T19:08:29.445Z,0.06
2023-11-27T19:12:57.285Z,0.04
2023-11-27T19:17:01.797Z,0.02
2023-11-27T19:21:14.522Z,-0.02
2023-11-27T19:25:39.730Z,-0.06
2023-11-27T19:34:46.841Z,-0.10
2023-11-27T19:39:26.722Z,-0.13
2023-11-27T19:43:59.979Z,-0.15
2023-11-27T19:48:44.293Z,-0.17
2023-11-27T19:53:23.453Z,-0.16
2023-11-27T19:57:48.413Z,-0.15
2023-11-27T20:02:13.163Z,-0.16
2023-11-27T20:06:41.011Z,-0.17
2023-11-27T20:10:55.917Z,-0.17
2023-11-27T20:15:43.650Z,-0.19
2023-11-27T20:20:07.673Z,-0.21
2023-11-27T20:24:49.060Z,-0.23
2023-11-27T20:29:13.963Z,-0.24
2023-11-27T20:34:16.799Z,-0.20
2023-11-27T20:38:26.133Z,-0.17
2023-11-27T20:42:33.892Z,-0.17
2023-11-27T20:46:41.213Z,-0.17
2023-11-27T20:51:25.479Z,-0.14
2023-11-27T20:55:59.091Z,-0.13
2023-11-27T21:00:04.381Z,-0.10
2023-11-27T21:04:50.004Z,-0.04
2023-11-27T21:09:15.746Z,0.01
2023-11-27T21:14:00.423Z,0.07
2023-11-27T21:18:42.964Z,0.11
2023-11-27T21:22:48.197Z,0.12
2023-11-27T21:27:18.125Z,0.16
2023-11-27T21:31:29.966Z,0.19
2023-11-27T21:35:58.164Z,0.20
2023-11-27T21:40:21.479Z,0.24
2023-11-27T21:44:45.850Z,0.27
2023-11-27T21:49:10.258Z,0.30
2023-11-27T21:53:26.411Z,0.34
2023-11-27T21:57:51.076Z,0.38
2023-11-27T22:02:15.832Z,0.40
2023-11-27T22:06:40.800Z,0.40
2023-11-27T22:11:06.522Z,0.41
2023-11-27T22:15:30.974Z,0.42
2023-11-27T22:19:35.328Z,0.43
2023-11-27T22:24:19.632Z,0.43
2023-11-27T22:28:41.502Z,0.42
2023-11-27T22:32:58.797Z,0.42
2023-11-27T22:37:02.925Z,0.42
2023-11-27T22:41:09.455Z,0.42
2023-11-27T22:45:13.115Z,0.41
2023-11-27T22:49:39.148Z,0.41
2023-11-27T22:54:00.740Z,0.41
2023-11-27T22:58:02.079Z,0.41
2023-11-27T23:02:47.004Z,0.39
2023-11-27T23:07:12.381Z,0.35
2023-11-27T23:11:27.208Z,0.32
2023-11-27T23:15:39.066Z,0.30
2023-11-27T23:20:23.246Z,0.27
2023-11-27T23:24:31.196Z,0.25
2023-11-27T23:29:10.600Z,0.24
2023-11-27T23:33:55.780Z,0.19
2023-11-27T23:38:04.258Z,0.20
2023-11-27T23:42:06.385Z,0.20
2023-11-27T23:46:51.987Z,0.20
2023-11-27T23:51:12.385Z,0.21
2023-11-27T23:55:57.458Z,0.17
